Facundo Miranda

Olheiro - Estudiantes
22 Fev 2027
Segunda-feira
Processo

Personalidade

Adaptabilidade (1) Ambição (1) Controvérsia (2) Lealdade (6) Pressão (12) Profissionalismo (7) Espírito Esportivo (20) Temperamento (15)

Perfil

Estilo de Treinamento Democrático
Licença Continental A
Determinação 9
Gestão de Pessoas 8
Motivação 8
Disciplina 8
Satisfação no Trabalho
50%
Fadiga
0%
Função Olheiro
Salário 59.5K p/s
Contrato 14.03.2028

Desempenho

Comportamento Normal
Eficácia do Treinamento
21%
Desenvolvimento do Jogador
75%
Prevenção de Lesões
35%
Implementação Tática
35%

Eventos Recentes

Avaliou um jogador agora
Avaliou um jogador agora
Participou de uma reunião de recrutamento agora
Avaliou um jogador agora
Avaliou um jogador agora
Avaliou um jogador 7d atrás
Avaliou um jogador 7d atrás
Avaliou um jogador 7d atrás

Monitorando agora

140
Jogador Clube Status Habilidade Confiança Observado Última observação Último voto
Ricky-Jade Jones St. Pauli Ativo 116 / 116 40% 1 20.02.2027 -
Yegor Golenkov Rostov Ativo 117 / 129 40% 1 20.02.2027 -
Teboho Williams SuperSport United Ativo 140 / 103 40% 2 18.02.2027 -
Haissem Hassan Bloemfontein Celtic Ativo 132 / 149 40% 1 18.02.2027 -
Jamie Cumming Oxford United Ativo 142 / 117 40% 2 17.02.2027 -
Dimitar Sheytanov CSKA 1948 Ativo 111 / 122 40% 1 17.02.2027 -
Adrián Alavés Ativo 107 / 104 40% 2 16.02.2027 -
Marios Siabanis Volos NPS Ativo 110 / 104 40% 1 16.02.2027 -
Aitor Ruibal Betis Ativo 153 / 154 40% 1 15.02.2027 -
Lorenzo Pirola Olympiacos Ativo 131 / 148 40% 1 15.02.2027 -
Sebastián Meza Huracán Ativo 134 / 132 40% 1 15.02.2027 -
Pablo Solari Spartak Moscow Ativo 131 / 111 40% 2 13.02.2027 -
Noah Sadiki Sunderland Ativo 140 / 163 40% 2 13.02.2027 -
Svetoslav Vutsov Levski Ativo 131 / 113 40% 1 12.02.2027 -
Panajot Qirko Partizani Tirana Ativo 121 / 119 40% 1 12.02.2027 -
Jason Al-Fayha Ativo 145 / 140 40% 1 12.02.2027 -
Helinho Toluca Ativo 136 / 125 40% 1 12.02.2027 -
Morten Hjulmand Atlético Madrid Ativo 137 / 143 40% 1 10.02.2027 -
Jaime Seoane Al-Faisaly Ativo 122 / 121 40% 1 09.02.2027 -
Natan Betis Ativo 160 / 160 40% 1 09.02.2027 -
Michel Ndary Adopo Cagliari Ativo 147 / 127 40% 1 08.02.2027 -
Rúben Neves Al-Hilal Ativo 166 / 157 40% 1 08.02.2027 -
Óscar Al-Diriyah Ativo 139 / 117 40% 1 07.02.2027 -
Luciano Gondou CSKA Moscow Ativo 133 / 139 40% 1 07.02.2027 -
Rhian Brewster Derby County Ativo 130 / 128 40% 1 06.02.2027 -
Nilson Angulo Sunderland Ativo 120 / 140 40% 1 06.02.2027 -
Mateusz Kochalski Qarabag Ativo 121 / 150 40% 3 05.02.2027 -
Nicolás Sumavil Platense Ativo 126 / 129 40% 1 05.02.2027 -
Bart van Rooij Twente Ativo 150 / 150 40% 1 04.02.2027 -
Tijjani Reijnders Al-Qadisiyah Ativo 176 / 163 40% 1 04.02.2027 -
Jean-Luc Morin Tours Ativo 142 / 157 40% 1 04.02.2027 -
Jan Hurtado Volos NPS Ativo 110 / 107 40% 1 04.02.2027 -
Kingsley Coman Al-Nassr Ativo 137 / 155 40% 1 03.02.2027 -
Mathias Jensen Brentford Ativo 151 / 134 40% 1 02.02.2027 -
Kobbie Mainoo Manchester United Ativo 148 / 140 40% 1 02.02.2027 -
Daniel Paraschiv Bnei Sakhnin Ativo 103 / 127 40% 1 01.02.2027 -
Percy Erasmus SuperSport United Ativo 133 / 129 40% 1 01.02.2027 -
Richard Ludha MFK Skalica Ativo 126 / 122 40% 3 31.01.2027 -
Federico Losas Leon Ativo 120 / 119 40% 1 31.01.2027 -
Rok Zajc NK Domzale Ativo 131 / 121 40% 1 29.01.2027 -
Moses Cobnan Krasnodar Ativo 116 / 110 40% 1 29.01.2027 -
Cristopher Varela Deportivo La Guaira Ativo 127 / 106 40% 1 26.01.2027 -
Aldo Pérez Guarani Ativo 107 / 122 40% 2 25.01.2027 -
Santino Barbi Talleres Ativo 119 / 107 40% 1 24.01.2027 -
Jay Gorter Pafos Ativo 104 / 109 40% 1 24.01.2027 -
Marcelo Allende Mamelodi Sundowns Ativo 149 / 132 40% 2 22.01.2027 -
Thierry Rendall Correia Venezia Ativo 143 / 149 40% 1 22.01.2027 -
Brayan Gil Baltika Ativo 124 / 134 40% 3 20.01.2027 -
Ignacio Russo Tigre Ativo 129 / 132 40% 1 20.01.2027 -
Matheus Alves CSKA Moscow Ativo 123 / 122 40% 1 13.01.2027 -
Oufa Shobeir ES Setif Ativo 133 / 138 40% 1 12.01.2027 -
Samu Maccabi Netanya Ativo 99 / 114 40% 1 12.01.2027 -
Nazar Voloshyn Dynamo Kyiv Ativo 144 / 128 40% 1 10.01.2027 -
Ihor Krasnopir Polissia Ativo 121 / 121 40% 2 09.01.2027 -
Ola Brynhildsen Bodo/Glimt Ativo 113 / 145 40% 1 09.01.2027 -
Ammar Ramadan DAC Dunajska Streda Ativo 118 / 134 40% 1 07.01.2027 -
Armstrong Oko-Flex Levski Ativo 115 / 106 40% 1 05.01.2027 -
Ivan Pakholiuk Kolos Ativo 116 / 111 40% 1 04.01.2027 -
Iqraam Rayners Mamelodi Sundowns Ativo 146 / 127 40% 1 04.01.2027 -
Luis Ingolotti Atlético Tucumán Ativo 111 / 109 40% 2 30.12.2026 -
Fedor Lapoukhov CSKA Sofia Ativo 115 / 133 40% 1 30.12.2026 -
Santiago Silva Boston River Ativo 124 / 128 40% 1 29.12.2026 -
Nikita Kokarev Krylya Sovetov Rejeitado 130 / 102 40% 1 29.12.2026 Mais informações
Mandla Jali SuperSport United Ativo 104 / 103 40% 1 28.12.2026 -
Ruslan Neshcheret Dynamo Kyiv Ativo 113 / 114 40% 1 15.12.2026 -
Luciano Jachfe Nueva Chicago Ativo 110 / 117 40% 1 15.12.2026 -
Luciano Jachfe Nueva Chicago Perdido 108 / 108 40% 3 30.11.2026 -
Nahuel Galardi Maipú Ativo 112 / 124 40% 1 30.11.2026 -
Mauro Arambarri River Plate Ativo 164 / 166 40% 2 29.11.2026 -
Vinicius Tobias Shakhtar Ativo 150 / 143 40% 1 29.11.2026 -
Chris Brady Chicago Fire Ativo 139 / 140 40% 2 27.11.2026 -
Alexandru Dragusin Astra Ativo 105 / 94 40% 1 27.11.2026 -
Luiz Felipe Rayo Vallecano Ativo 143 / 130 40% 2 25.11.2026 -
Julian Weigl Al-Qadisiyah Ativo 156 / 123 40% 2 25.11.2026 -
Roman Celentano FC Cincinnati Ativo 114 / 110 40% 2 24.11.2026 -
Victor Aznar Cádiz Ativo 113 / 121 40% 1 24.11.2026 -
Mohamed Ali Ben Romdhane Al Ahly Ativo 138 / 127 40% 1 17.11.2026 -
Santiago Ascacíbar Boca Juniors Ativo 143 / 137 40% 1 17.11.2026 -
David Junuzovic Mattersburg Ativo 145 / 145 40% 3 16.11.2026 -
Otávio Al-Qadisiyah Ativo 129 / 133 40% 1 16.11.2026 -
Antonín Kinský Tottenham Rejeitado 133 / 144 40% 1 14.11.2026 Mais informações
Sergiu Ratiu Pandurii Perdido 121 / 106 40% 1 14.11.2026 Mais informações
Lukas Gütlbauer Wolfsberger AC Ativo 125 / 132 40% 1 13.11.2026 -
Sławomir Abramowicz Jagiellonia Ativo 113 / 140 40% 1 13.11.2026 -
Manuel Roffo Cerro Porteno Ativo 139 / 131 40% 1 11.11.2026 -
Ivan Pakholiuk Kolos Perdido 123 / 130 40% 1 11.11.2026 -
Evander FC Cincinnati Ativo 135 / 150 40% 2 09.11.2026 -
Théo Hernández Al-Hilal Ativo 169 / 145 40% 1 09.11.2026 -
Rodrigo Huescas FC Copenhagen Ativo 151 / 129 40% 2 07.11.2026 -
Danil Glebov Dinamo Moscow Ativo 121 / 128 40% 1 07.11.2026 -
Daniil Khudyakov Sturm Graz Perdido 128 / 122 40% 1 06.11.2026 -
Evidence Billiat Ajax Cape Town Ativo 98 / 118 40% 2 05.11.2026 -
Iñaki Peña Panathinaikos Ativo 143 / 124 40% 1 05.11.2026 -
Mandla Jali SuperSport United Perdido 126 / 110 40% 1 04.11.2026 -
Nikita Kokarev Krylya Sovetov Perdido 119 / 135 40% 1 03.11.2026 Mais informações
Adrián Alavés Perdido 112 / 139 40% 1 03.11.2026 -
Ignacio Vázquez Platense Ativo 116 / 115 40% 2 01.11.2026 -
Pablo Maffeo Olympiacos Ativo 139 / 123 40% 3 01.11.2026 -
Gabriel Pereira FC Copenhagen Ativo 144 / 144 40% 1 31.10.2026 -
Christopher Martins Pereira Spartak Moscow Ativo 118 / 108 40% 1 31.10.2026 -
Ştefan Târnovanu FCSB Ativo 123 / 102 40% 1 29.10.2026 -
Keisuke Osako Sanfrecce Hiroshima Ativo 145 / 152 40% 1 29.10.2026 -
Răzvan Sava Universitatea Craiova Ativo 121 / 142 40% 1 26.10.2026 -
Adrián Marín Orlando City Ativo 126 / 115 40% 1 24.10.2026 -
Pablo Ramón Racing Club Ativo 130 / 118 40% 1 22.10.2026 -
Williams Alarcón Boca Juniors Ativo 119 / 133 40% 1 20.10.2026 -
Santiago Longo Belgrano Ativo 125 / 131 40% 1 20.10.2026 -
Ondrej Duda Zamalek Ativo 115 / 140 40% 1 19.10.2026 -
Keaton Parks New York City Ativo 138 / 138 40% 1 12.10.2026 -
Nahuel Manganelli Dinamo Batumi Ativo 95 / 133 40% 1 09.10.2026 -
Esteban Glellel Shonan Bellmare Ativo 113 / 123 40% 2 07.10.2026 -
Felipe San Juan Gimnasia y Esgrima Ativo 124 / 112 40% 1 07.10.2026 -
Santiago González Tigre Ativo 113 / 134 40% 1 05.10.2026 -
Felipe Zenobio Tigre Perdido 133 / 139 40% 1 04.10.2026 -
Yeray Athletic Bilbao Ativo 115 / 124 40% 2 03.10.2026 -
Ayrton Costa Boca Juniors Ativo 145 / 143 40% 1 03.10.2026 -
Lucas Torreira Galatasaray Ativo 165 / 162 40% 1 02.10.2026 -
Bryan Ramírez FC Cincinnati Ativo 139 / 134 40% 1 02.10.2026 -
Diego Romero Universitario Ativo 107 / 112 40% 2 01.10.2026 -
John Pulskamp Sporting Kansas City Ativo 114 / 125 40% 1 30.09.2026 -
Obinna Nwobodo FC Cincinnati Ativo 133 / 122 40% 1 28.09.2026 -
Luka Gavran Toronto FC Ativo 108 / 98 40% 1 25.09.2026 -
Emanuel Mammana Vélez Ativo 141 / 125 40% 1 25.09.2026 -
Anthony Racioppi Sion Ativo 106 / 119 40% 1 22.09.2026 -
Fidel Ambríz Monterrey Ativo 137 / 133 40% 1 19.09.2026 -
Ramón Juárez Club America Ativo 130 / 122 40% 1 19.09.2026 -
Sebastián Cáceres Club America Ativo 142 / 130 40% 2 18.09.2026 -
Sebastian Hernandez Cortulua Ativo 125 / 111 40% 2 17.09.2026 -
Alejandro Rodríguez Deportivo Cali Ativo 117 / 127 40% 1 16.09.2026 -
Sergio Quintero La Equidad Ativo 140 / 153 40% 1 15.09.2026 -
Sergio Garcia La Equidad Ativo 131 / 123 40% 1 13.09.2026 -
Patrick Schulte Columbus Crew Ativo 131 / 129 40% 1 11.09.2026 -
Sergio Barreto Pachuca Ativo 134 / 120 40% 1 11.08.2026 -
Gerardo Arteaga Monterrey Ativo 115 / 121 40% 1 11.08.2026 -
Yuma Suzuki Kashima Antlers Ativo 156 / 117 40% 2 08.08.2026 -
Juan Brunetta Tigres Rejeitado 141 / 127 40% 1 05.08.2026 Mais informações
Federico Pereira Toluca Ativo 141 / 138 40% 1 04.08.2026 -
Ricardo Horta Braga Ativo 158 / 131 40% 1 02.08.2026 -
Carlos Vinícius Grêmio Ativo 121 / 146 40% 1 02.08.2026 -
Veljko Birmančević Ferencvaros Ativo 122 / 119 40% 1 01.08.2026 -